sensor_id;sensor_type;location;lat;lon;timestamp;pressure;altitude;pressure_sealevel;temperature;humidity
59419;BME280;45224;50.904;6.038;2023-03-31T00:00:20;98747.16;;;11.11;96.99
59419;BME280;45224;50.904;6.038;2023-03-31T00:01:50;98738.63;;;11.06;96.88
59419;BME280;45224;50.904;6.038;2023-03-31T00:03:21;98748.22;;;11.00;97.42
59419;BME280;45224;50.904;6.038;2023-03-31T00:04:54;98739.53;;;11.04;96.72
59419;BME280;45224;50.904;6.038;2023-03-31T00:06:35;98739.72;;;10.93;97.91
59419;BME280;45224;50.904;6.038;2023-03-31T00:08:10;98729.25;;;11.01;97.18
59419;BME280;45224;50.904;6.038;2023-03-31T00:09:43;98712.22;;;10.90;97.76
59419;BME280;45224;50.904;6.038;2023-03-31T00:11:16;98729.44;;;10.90;98.34
59419;BME280;45224;50.904;6.038;2023-03-31T00:12:46;98720.09;;;10.83;98.33
59419;BME280;45224;50.904;6.038;2023-03-31T00:14:19;98714.81;;;10.89;98.43
59419;BME280;45224;50.904;6.038;2023-03-31T00:15:55;98708.00;;;10.83;98.69
59419;BME280;45224;50.904;6.038;2023-03-31T00:17:26;98706.34;;;10.81;99.11
59419;BME280;45224;50.904;6.038;2023-03-31T00:18:56;98699.47;;;10.80;99.53
59419;BME280;45224;50.904;6.038;2023-03-31T00:20:27;98710.66;;;10.80;100.00
59419;BME280;45224;50.904;6.038;2023-03-31T00:21:58;98696.00;;;10.81;99.54
59419;BME280;45224;50.904;6.038;2023-03-31T00:23:31;98699.41;;;10.83;99.93
59419;BME280;45224;50.904;6.038;2023-03-31T00:25:02;98695.91;;;10.87;99.60
59419;BME280;45224;50.904;6.038;2023-03-31T00:26:33;98696.00;;;10.81;99.50
59419;BME280;45224;50.904;6.038;2023-03-31T00:28:04;98686.44;;;10.86;99.27
59419;BME280;45224;50.904;6.038;2023-03-31T00:29:34;98689.75;;;10.92;98.74
59419;BME280;45224;50.904;6.038;2023-03-31T00:31:05;98678.56;;;10.92;99.28
59419;BME280;45224;50.904;6.038;2023-03-31T00:32:35;98678.31;;;11.04;98.49
59419;BME280;45224;50.904;6.038;2023-03-31T00:34:06;98669.91;;;10.93;99.27
59419;BME280;45224;50.904;6.038;2023-03-31T00:35:37;98668.09;;;10.98;99.18
59419;BME280;45224;50.904;6.038;2023-03-31T00:37:08;98669.91;;;10.93;100.00
59419;BME280;45224;50.904;6.038;2023-03-31T00:38:39;98660.44;;;10.93;99.40
59419;BME280;45224;50.904;6.038;2023-03-31T00:40:09;98658.03;;;10.83;99.78
59419;BME280;45224;50.904;6.038;2023-03-31T00:41:42;98655.31;;;10.90;99.61
59419;BME280;45224;50.904;6.038;2023-03-31T00:43:26;98655.25;;;10.93;99.33
59419;BME280;45224;50.904;6.038;2023-03-31T00:48:17;98639.69;;;10.96;98.97
59419;BME280;45224;50.904;6.038;2023-03-31T00:49:50;98633.44;;;11.07;97.92
59419;BME280;45224;50.904;6.038;2023-03-31T00:51:27;98636.19;;;10.98;98.49
59419;BME280;45224;50.904;6.038;2023-03-31T00:53:02;98630.19;;;10.97;98.74
59419;BME280;45224;50.904;6.038;2023-03-31T00:54:37;98626.63;;;11.01;98.20
59419;BME280;45224;50.904;6.038;2023-03-31T00:56:12;98632.81;;;10.95;98.48
59419;BME280;45224;50.904;6.038;2023-03-31T00:57:45;98621.72;;;10.89;98.33
59419;BME280;45224;50.904;6.038;2023-03-31T00:59:17;98630.34;;;10.88;98.76
59419;BME280;45224;50.904;6.038;2023-03-31T01:00:49;98621.56;;;10.98;98.21
59419;BME280;45224;50.904;6.038;2023-03-31T01:02:22;98628.22;;;11.08;98.04
59419;BME280;45224;50.904;6.038;2023-03-31T01:03:56;98633.63;;;10.98;98.16
59419;BME280;45224;50.904;6.038;2023-03-31T01:05:32;98627.44;;;11.05;97.79
59419;BME280;45224;50.904;6.038;2023-03-31T01:07:25;98625.19;;;10.88;98.64
59419;BME280;45224;50.904;6.038;2023-03-31T01:09:01;98620.75;;;10.94;98.68
59419;BME280;45224;50.904;6.038;2023-03-31T01:10:39;98622.53;;;10.91;98.93
59419;BME280;45224;50.904;6.038;2023-03-31T01:12:11;98605.41;;;10.87;99.60
59419;BME280;45224;50.904;6.038;2023-03-31T01:13:42;98612.28;;;10.86;100.00
59419;BME280;45224;50.904;6.038;2023-03-31T01:15:13;98610.34;;;10.98;99.69
59419;BME280;45224;50.904;6.038;2023-03-31T01:16:44;98596.75;;;10.88;99.87
59419;BME280;45224;50.904;6.038;2023-03-31T01:18:15;98604.25;;;11.00;99.75
59419;BME280;45224;50.904;6.038;2023-03-31T01:20:12;98613.16;;;10.87;100.00
59419;BME280;45224;50.904;6.038;2023-03-31T01:42:36;98571.31;;;10.68;100.00
59419;BME280;45224;50.904;6.038;2023-03-31T01:44:30;98577.41;;;10.64;100.00
59419;BME280;45224;50.904;6.038;2023-03-31T01:46:27;98566.31;;;10.58;100.00
59419;BME280;45224;50.904;6.038;2023-03-31T01:49:55;98556.69;;;10.65;100.00
59419;BME280;45224;50.904;6.038;2023-03-31T01:53:19;98554.19;;;10.60;100.00
59419;BME280;45224;50.904;6.038;2023-03-31T01:55:25;98544.09;;;10.50;100.00
59419;BME280;45224;50.904;6.038;2023-03-31T01:56:58;98533.72;;;10.51;100.00
59419;BME280;45224;50.904;6.038;2023-03-31T01:58:42;98531.13;;;10.53;100.00
59419;BME280;45224;50.904;6.038;2023-03-31T02:00:22;98524.34;;;10.46;100.00
59419;BME280;45224;50.904;6.038;2023-03-31T02:02:27;98517.38;;;10.49;100.00
59419;BME280;45224;50.904;6.038;2023-03-31T02:04:02;98512.13;;;10.54;100.00
59419;BME280;45224;50.904;6.038;2023-03-31T02:05:47;98515.34;;;10.65;100.00
59419;BME280;45224;50.904;6.038;2023-03-31T02:07:27;98500.09;;;10.53;100.00
59419;BME280;45224;50.904;6.038;2023-03-31T02:09:05;98489.88;;;10.47;100.00
59419;BME280;45224;50.904;6.038;2023-03-31T02:10:41;98494.19;;;10.46;100.00
59419;BME280;45224;50.904;6.038;2023-03-31T02:12:13;98469.88;;;10.56;100.00
59419;BME280;45224;50.904;6.038;2023-03-31T02:13:46;98470.84;;;10.51;100.00
59419;BME280;45224;50.904;6.038;2023-03-31T02:15:23;98470.97;;;10.45;100.00
59419;BME280;45224;50.904;6.038;2023-03-31T02:16:57;98470.78;;;10.54;100.00
59419;BME280;45224;50.904;6.038;2023-03-31T02:18:30;98463.03;;;10.54;100.00
59419;BME280;45224;50.904;6.038;2023-03-31T02:20:07;98457.97;;;10.48;100.00
59419;BME280;45224;50.904;6.038;2023-03-31T02:21:40;98455.34;;;10.51;100.00
59419;BME280;45224;50.904;6.038;2023-03-31T02:23:13;98439.63;;;10.60;100.00
59419;BME280;45224;50.904;6.038;2023-03-31T02:24:45;98427.66;;;10.56;100.00
59419;BME280;45224;50.904;6.038;2023-03-31T02:26:21;98425.19;;;10.51;100.00
59419;BME280;45224;50.904;6.038;2023-03-31T02:27:57;98425.31;;;10.45;100.00
59419;BME280;45224;50.904;6.038;2023-03-31T02:29:29;98402.00;;;10.48;100.00
59419;BME280;45224;50.904;6.038;2023-03-31T02:32:34;98393.59;;;10.38;100.00
59419;BME280;45224;50.904;6.038;2023-03-31T02:34:06;98389.13;;;10.47;100.00
59419;BME280;45224;50.904;6.038;2023-03-31T02:35:36;98385.63;;;10.48;100.00
59419;BME280;45224;50.904;6.038;2023-03-31T02:37:07;98382.06;;;10.53;100.00
59419;BME280;45224;50.904;6.038;2023-03-31T02:38:42;98387.28;;;10.52;100.00
59419;BME280;45224;50.904;6.038;2023-03-31T02:40:18;98372.56;;;10.54;100.00
59419;BME280;45224;50.904;6.038;2023-03-31T02:41:49;98370.09;;;10.49;100.00
59419;BME280;45224;50.904;6.038;2023-03-31T02:43:19;98359.91;;;10.41;100.00
59419;BME280;45224;50.904;6.038;2023-03-31T02:44:51;98354.53;;;10.52;100.00
59419;BME280;45224;50.904;6.038;2023-03-31T02:46:23;98346.00;;;10.49;100.00
59419;BME280;45224;50.904;6.038;2023-03-31T02:47:55;98343.47;;;10.46;100.00
59419;BME280;45224;50.904;6.038;2023-03-31T02:49:26;98333.06;;;10.49;100.00
59419;BME280;45224;50.904;6.038;2023-03-31T02:51:33;98339.88;;;10.53;100.00
59419;BME280;45224;50.904;6.038;2023-03-31T02:55:19;98324.69;;;10.39;100.00
59419;BME280;45224;50.904;6.038;2023-03-31T02:59:01;98318.69;;;10.38;100.00
59419;BME280;45224;50.904;6.038;2023-03-31T03:08:08;98301.47;;;10.37;100.00
59419;BME280;45224;50.904;6.038;2023-03-31T03:10:01;98305.28;;;10.19;99.76
59419;BME280;45224;50.904;6.038;2023-03-31T03:15:48;98302.53;;;10.27;99.28
59419;BME280;45224;50.904;6.038;2023-03-31T03:17:30;98279.19;;;10.30;98.19
59419;BME280;45224;50.904;6.038;2023-03-31T03:19:05;98280.38;;;10.17;98.43
59419;BME280;45224;50.904;6.038;2023-03-31T03:20:36;98274.38;;;10.16;98.08
59419;BME280;45224;50.904;6.038;2023-03-31T03:22:07;98263.16;;;10.17;97.44
59419;BME280;45224;50.904;6.038;2023-03-31T03:23:38;98255.41;;;10.17;97.84
59419;BME280;45224;50.904;6.038;2023-03-31T03:25:11;98276.28;;;10.08;97.24
59419;BME280;45224;50.904;6.038;2023-03-31T03:26:43;98255.59;;;10.10;96.75
59419;BME280;45224;50.904;6.038;2023-03-31T03:28:14;98260.69;;;10.13;96.31
59419;BME280;45224;50.904;6.038;2023-03-31T03:29:44;98263.56;;;9.99;96.51
59419;BME280;45224;50.904;6.038;2023-03-31T03:31:15;98275.56;;;10.01;95.89
59419;BME280;45224;50.904;6.038;2023-03-31T03:32:47;98271.31;;;9.99;96.10
59419;BME280;45224;50.904;6.038;2023-03-31T03:34:18;98270.34;;;10.04;95.37
59419;BME280;45224;50.904;6.038;2023-03-31T03:35:49;98264.38;;;10.01;95.26
59419;BME280;45224;50.904;6.038;2023-03-31T03:37:20;98235.16;;;9.99;94.39
59419;BME280;45224;50.904;6.038;2023-03-31T03:38:50;98254.94;;;10.00;95.04
59419;BME280;45224;50.904;6.038;2023-03-31T03:40:21;98253.97;;;10.04;95.47
59419;BME280;45224;50.904;6.038;2023-03-31T03:41:51;98249.16;;;9.89;95.04
59419;BME280;45224;50.904;6.038;2023-03-31T03:43:21;98232.47;;;10.03;95.08
59419;BME280;45224;50.904;6.038;2023-03-31T03:44:52;98235.31;;;9.91;96.78
59419;BME280;45224;50.904;6.038;2023-03-31T03:46:22;98219.03;;;9.89;96.20
59419;BME280;45224;50.904;6.038;2023-03-31T03:47:53;98203.03;;;10.11;95.93
59419;BME280;45224;50.904;6.038;2023-03-31T03:49:23;98191.22;;;10.00;95.92
59419;BME280;45224;50.904;6.038;2023-03-31T03:50:54;98190.47;;;9.97;97.10
59419;BME280;45224;50.904;6.038;2023-03-31T03:52:24;98179.06;;;10.05;96.35
59419;BME280;45224;50.904;6.038;2023-03-31T03:53:55;98166.53;;;9.90;96.69
59419;BME280;45224;50.904;6.038;2023-03-31T03:55:25;98163.00;;;9.93;97.34
59419;BME280;45224;50.904;6.038;2023-03-31T03:56:56;98167.19;;;9.98;97.19
59419;BME280;45224;50.904;6.038;2023-03-31T03:58:26;98168.94;;;9.96;96.64
59419;BME280;45224;50.904;6.038;2023-03-31T03:59:57;98138.91;;;9.94;97.20
59419;BME280;45224;50.904;6.038;2023-03-31T04:01:27;98150.00;;;9.97;95.89
59419;BME280;45224;50.904;6.038;2023-03-31T04:02:58;98152.69;;;9.93;96.06
59419;BME280;45224;50.904;6.038;2023-03-31T04:04:28;98156.88;;;9.98;95.91
59419;BME280;45224;50.904;6.038;2023-03-31T04:05:59;98138.91;;;9.94;96.03
59419;BME280;45224;50.904;6.038;2023-03-31T04:07:29;98141.69;;;9.84;95.76
59419;BME280;45224;50.904;6.038;2023-03-31T04:09:00;98135.47;;;9.93;95.94
59419;BME280;45224;50.904;6.038;2023-03-31T04:10:31;98130.91;;;10.04;95.28
59419;BME280;45224;50.904;6.038;2023-03-31T04:12:01;98116.34;;;10.00;94.70
59419;BME280;45224;50.904;6.038;2023-03-31T04:13:32;98129.41;;;9.94;94.89
59419;BME280;45224;50.904;6.038;2023-03-31T04:15:03;98113.88;;;9.96;95.07
59419;BME280;45224;50.904;6.038;2023-03-31T04:16:34;98109.53;;;9.98;94.35
59419;BME280;45224;50.904;6.038;2023-03-31T04:18:04;98103.31;;;10.07;93.60
59419;BME280;45224;50.904;6.038;2023-03-31T04:19:35;98104.25;;;10.02;93.99
59419;BME280;45224;50.904;6.038;2023-03-31T04:21:05;98098.28;;;10.00;94.50
59419;BME280;45224;50.904;6.038;2023-03-31T04:22:36;98086.81;;;10.11;93.55
59419;BME280;45224;50.904;6.038;2023-03-31T04:24:16;98076.00;;;9.96;92.70
59419;BME280;45224;50.904;6.038;2023-03-31T04:25:50;98089.78;;;9.97;93.06
59419;BME280;45224;50.904;6.038;2023-03-31T04:27:21;98093.22;;;9.96;93.77
59419;BME280;45224;50.904;6.038;2023-03-31T04:28:52;98090.72;;;9.93;93.21
59419;BME280;45224;50.904;6.038;2023-03-31T04:30:24;98084.50;;;10.01;92.98
59419;BME280;45224;50.904;6.038;2023-03-31T04:32:00;98071.66;;;9.98;92.66
59419;BME280;45224;50.904;6.038;2023-03-31T04:33:31;98079.56;;;9.92;93.42
59419;BME280;45224;50.904;6.038;2023-03-31T04:35:03;98081.25;;;9.93;92.50
59419;BME280;45224;50.904;6.038;2023-03-31T04:36:34;98084.72;;;9.92;92.74
59419;BME280;45224;50.904;6.038;2023-03-31T04:38:04;98086.50;;;9.90;92.41
59419;BME280;45224;50.904;6.038;2023-03-31T04:39:35;98081.41;;;9.87;92.11
59419;BME280;45224;50.904;6.038;2023-03-31T04:41:05;98071.16;;;9.84;91.18
59419;BME280;45224;50.904;6.038;2023-03-31T04:42:36;98068.41;;;9.92;90.67
59419;BME280;45224;50.904;6.038;2023-03-31T04:44:07;98067.50;;;9.93;90.13
59419;BME280;45224;50.904;6.038;2023-03-31T04:45:37;98069.38;;;9.86;90.28
59419;BME280;45224;50.904;6.038;2023-03-31T04:47:08;98064.78;;;9.97;90.77
59419;BME280;45224;50.904;6.038;2023-03-31T04:48:38;98059.66;;;9.96;91.52
59419;BME280;45224;50.904;6.038;2023-03-31T04:50:09;98061.00;;;10.11;90.62
59419;BME280;45224;50.904;6.038;2023-03-31T04:51:40;98049.13;;;10.05;90.06
59419;BME280;45224;50.904;6.038;2023-03-31T04:53:10;98043.88;;;10.08;91.03
59419;BME280;45224;50.904;6.038;2023-03-31T04:54:41;98040.44;;;10.08;91.12
59419;BME280;45224;50.904;6.038;2023-03-31T04:56:12;98046.41;;;10.10;92.02
59419;BME280;45224;50.904;6.038;2023-03-31T04:57:42;98027.78;;;9.98;91.36
59419;BME280;45224;50.904;6.038;2023-03-31T04:59:13;98023.00;;;10.17;91.77
59419;BME280;45224;50.904;6.038;2023-03-31T05:00:43;98021.28;;;10.16;91.72
59419;BME280;45224;50.904;6.038;2023-03-31T05:02:14;98007.81;;;10.05;92.30
59419;BME280;45224;50.904;6.038;2023-03-31T05:03:51;98017.38;;;10.01;93.86
59419;BME280;45224;50.904;6.038;2023-03-31T05:05:21;98010.72;;;9.91;94.69
59419;BME280;45224;50.904;6.038;2023-03-31T05:06:52;98008.06;;;9.94;94.62
59419;BME280;45224;50.904;6.038;2023-03-31T05:08:22;98011.53;;;9.95;95.32
59419;BME280;45224;50.904;6.038;2023-03-31T05:09:53;98002.75;;;9.67;95.83
59419;BME280;45224;50.904;6.038;2023-03-31T05:11:23;98011.00;;;9.82;97.29
59419;BME280;45224;50.904;6.038;2023-03-31T05:12:54;98005.00;;;9.80;97.12
59419;BME280;45224;50.904;6.038;2023-03-31T05:14:25;98004.28;;;9.75;98.13
59419;BME280;45224;50.904;6.038;2023-03-31T05:15:55;97998.47;;;9.66;97.71
59419;BME280;45224;50.904;6.038;2023-03-31T05:17:26;97988.00;;;9.73;98.23
59419;BME280;45224;50.904;6.038;2023-03-31T05:18:56;97979.41;;;9.72;98.21
59419;BME280;45224;50.904;6.038;2023-03-31T05:20:27;97971.72;;;9.71;98.31
59419;BME280;45224;50.904;6.038;2023-03-31T05:21:57;97980.44;;;9.65;98.24
59419;BME280;45224;50.904;6.038;2023-03-31T05:23:28;97979.41;;;9.72;97.80
59419;BME280;45224;50.904;6.038;2023-03-31T05:24:59;97981.06;;;9.75;98.20
59419;BME280;45224;50.904;6.038;2023-03-31T05:26:29;97978.63;;;9.68;98.35
59419;BME280;45224;50.904;6.038;2023-03-31T05:28:00;97984.66;;;9.69;98.60
59419;BME280;45224;50.904;6.038;2023-03-31T05:29:31;97986.28;;;9.72;98.36
59419;BME280;45224;50.904;6.038;2023-03-31T05:31:03;97983.13;;;9.60;98.77
59419;BME280;45224;50.904;6.038;2023-03-31T05:32:34;97982.19;;;9.64;97.44
59419;BME280;45224;50.904;6.038;2023-03-31T05:34:05;97980.94;;;9.79;96.46
59419;BME280;45224;50.904;6.038;2023-03-31T05:35:35;97978.47;;;9.75;96.81
59419;BME280;45224;50.904;6.038;2023-03-31T05:37:06;97971.94;;;9.61;96.84
59419;BME280;45224;50.904;6.038;2023-03-31T05:38:36;97970.94;;;9.65;96.35
59419;BME280;45224;50.904;6.038;2023-03-31T05:40:07;97970.66;;;9.78;96.61
59419;BME280;45224;50.904;6.038;2023-03-31T05:41:38;97970.72;;;9.75;96.10
59419;BME280;45224;50.904;6.038;2023-03-31T05:43:09;97966.63;;;9.67;95.99
59419;BME280;45224;50.904;6.038;2023-03-31T05:44:39;97968.81;;;9.81;95.33
59419;BME280;45224;50.904;6.038;2023-03-31T05:46:10;97944.19;;;9.69;95.30
59419;BME280;45224;50.904;6.038;2023-03-31T05:47:40;97968.19;;;9.73;95.51
59419;BME280;45224;50.904;6.038;2023-03-31T05:49:11;97950.94;;;9.74;95.86
59419;BME280;45224;50.904;6.038;2023-03-31T05:50:41;97960.22;;;9.82;95.28
59419;BME280;45224;50.904;6.038;2023-03-31T05:52:13;97954.22;;;9.82;95.35
59419;BME280;45224;50.904;6.038;2023-03-31T05:53:43;97946.69;;;9.73;95.11
59419;BME280;45224;50.904;6.038;2023-03-31T05:55:14;97957.59;;;9.84;94.74
59419;BME280;45224;50.904;6.038;2023-03-31T05:56:44;97961.09;;;9.81;94.51
59419;BME280;45224;50.904;6.038;2023-03-31T05:58:15;97954.38;;;9.76;94.40
59419;BME280;45224;50.904;6.038;2023-03-31T05:59:45;97948.00;;;9.89;93.73
59419;BME280;45224;50.904;6.038;2023-03-31T06:01:16;97936.09;;;9.83;93.55
59419;BME280;45224;50.904;6.038;2023-03-31T06:02:52;97944.53;;;9.90;93.83
59419;BME280;45224;50.904;6.038;2023-03-31T06:04:23;97941.06;;;9.90;93.20
59419;BME280;45224;50.904;6.038;2023-03-31T06:05:53;97946.16;;;9.93;93.17
59419;BME280;45224;50.904;6.038;2023-03-31T06:07:24;97944.69;;;9.84;92.77
59419;BME280;45224;50.904;6.038;2023-03-31T06:08:55;97948.94;;;9.85;92.57
59419;BME280;45224;50.904;6.038;2023-03-31T06:10:26;97941.03;;;9.91;93.02
59419;BME280;45224;50.904;6.038;2023-03-31T06:11:56;97941.94;;;9.90;92.38
59419;BME280;45224;50.904;6.038;2023-03-31T06:13:26;97933.13;;;9.97;92.41
59419;BME280;45224;50.904;6.038;2023-03-31T06:14:57;97947.72;;;10.00;93.18
59419;BME280;45224;50.904;6.038;2023-03-31T06:16:27;97930.56;;;9.97;92.58
59419;BME280;45224;50.904;6.038;2023-03-31T06:17:58;97941.66;;;9.99;92.38
59419;BME280;45224;50.904;6.038;2023-03-31T06:19:28;97937.94;;;10.11;92.38
59419;BME280;45224;50.904;6.038;2023-03-31T06:21:00;97927.53;;;10.14;92.40
59419;BME280;45224;50.904;6.038;2023-03-31T06:22:31;97925.59;;;10.21;91.07
59419;BME280;45224;50.904;6.038;2023-03-31T06:24:02;97927.22;;;10.23;90.57
59419;BME280;45224;50.904;6.038;2023-03-31T06:25:32;97923.44;;;10.38;91.09
59419;BME280;45224;50.904;6.038;2023-03-31T06:27:05;97924.91;;;10.46;90.43
59419;BME280;45224;50.904;6.038;2023-03-31T06:28:35;97925.41;;;10.58;90.11
59419;BME280;45224;50.904;6.038;2023-03-31T06:30:06;97922.78;;;10.60;89.15
59419;BME280;45224;50.904;6.038;2023-03-31T06:31:37;97910.47;;;10.68;89.26
59419;BME280;45224;50.904;6.038;2023-03-31T06:33:07;97892.41;;;10.67;89.08
59419;BME280;45224;50.904;6.038;2023-03-31T06:34:38;97902.56;;;10.73;88.94
59419;BME280;45224;50.904;6.038;2023-03-31T06:36:09;97911.06;;;10.76;88.89
59419;BME280;45224;50.904;6.038;2023-03-31T06:37:41;97891.09;;;10.82;88.20
59419;BME280;45224;50.904;6.038;2023-03-31T06:39:12;97902.53;;;11.01;87.41
59419;BME280;45224;50.904;6.038;2023-03-31T06:40:42;97904.78;;;11.12;86.66
59419;BME280;45224;50.904;6.038;2023-03-31T06:42:13;97901.38;;;11.11;85.80
59419;BME280;45224;50.904;6.038;2023-03-31T06:43:44;97906.91;;;11.27;86.22
59419;BME280;45224;50.904;6.038;2023-03-31T06:45:16;97908.28;;;11.38;85.58
59419;BME280;45224;50.904;6.038;2023-03-31T06:46:46;97891.00;;;11.38;85.56
59419;BME280;45224;50.904;6.038;2023-03-31T06:48:16;97900.53;;;11.63;84.91
59419;BME280;45224;50.904;6.038;2023-03-31T06:49:47;97902.41;;;11.58;83.37
59419;BME280;45224;50.904;6.038;2023-03-31T06:51:17;97899.03;;;11.56;83.69
59419;BME280;45224;50.904;6.038;2023-03-31T06:52:48;97902.19;;;11.64;83.72
59419;BME280;45224;50.904;6.038;2023-03-31T06:54:21;97896.72;;;11.73;83.93
59419;BME280;45224;50.904;6.038;2023-03-31T06:55:52;97901.28;;;11.66;84.02
59419;BME280;45224;50.904;6.038;2023-03-31T06:57:22;97908.41;;;11.60;83.48
59419;BME280;45224;50.904;6.038;2023-03-31T06:58:53;97915.63;;;11.50;84.37
59419;BME280;45224;50.904;6.038;2023-03-31T07:00:24;97896.66;;;11.49;84.94
59419;BME280;45224;50.904;6.038;2023-03-31T07:01:56;97912.47;;;11.42;85.29
59419;BME280;45224;50.904;6.038;2023-03-31T07:03:26;97911.00;;;11.60;85.07
59419;BME280;45224;50.904;6.038;2023-03-31T07:04:58;97905.28;;;11.50;85.55
59419;BME280;45224;50.904;6.038;2023-03-31T07:06:29;97902.75;;;11.48;86.40
59419;BME280;45224;50.904;6.038;2023-03-31T07:08:00;97911.41;;;11.47;86.25
59419;BME280;45224;50.904;6.038;2023-03-31T07:09:31;97908.50;;;11.30;87.23
59419;BME280;45224;50.904;6.038;2023-03-31T07:11:02;97890.50;;;11.27;87.83
59419;BME280;45224;50.904;6.038;2023-03-31T07:12:32;97887.19;;;11.23;87.02
59419;BME280;45224;50.904;6.038;2023-03-31T07:14:03;97890.00;;;11.15;87.30
59419;BME280;45224;50.904;6.038;2023-03-31T07:15:33;97901.22;;;11.16;88.28
59419;BME280;45224;50.904;6.038;2023-03-31T07:17:04;97907.97;;;11.20;89.65
59419;BME280;45224;50.904;6.038;2023-03-31T07:18:35;97908.34;;;11.09;90.22
59419;BME280;45224;50.904;6.038;2023-03-31T07:20:11;97911.13;;;11.03;91.88
59419;BME280;45224;50.904;6.038;2023-03-31T07:21:42;97904.56;;;10.91;93.45
59419;BME280;45224;50.904;6.038;2023-03-31T07:23:12;97907.16;;;10.91;92.76
59419;BME280;45224;50.904;6.038;2023-03-31T07:24:43;97897.03;;;10.85;92.49
59419;BME280;45224;50.904;6.038;2023-03-31T07:26:13;97894.59;;;10.81;92.98
59419;BME280;45224;50.904;6.038;2023-03-31T07:27:44;97899.94;;;10.74;93.81
59419;BME280;45224;50.904;6.038;2023-03-31T07:29:14;97889.16;;;10.88;94.34
59419;BME280;45224;50.904;6.038;2023-03-31T07:30:45;97887.53;;;10.86;93.57
59419;BME280;45224;50.904;6.038;2023-03-31T07:32:15;97892.88;;;10.80;92.98
59419;BME280;45224;50.904;6.038;2023-03-31T07:33:46;97890.22;;;10.83;93.73
59419;BME280;45224;50.904;6.038;2023-03-31T07:35:17;97882.38;;;10.86;92.88
59419;BME280;45224;50.904;6.038;2023-03-31T07:36:48;97894.19;;;10.93;93.24
59419;BME280;45224;50.904;6.038;2023-03-31T07:38:18;97885.50;;;10.95;93.38
59419;BME280;45224;50.904;6.038;2023-03-31T07:39:49;97885.56;;;10.94;92.02
59419;BME280;45224;50.904;6.038;2023-03-31T07:41:20;97876.63;;;11.03;91.67
59419;BME280;45224;50.904;6.038;2023-03-31T07:42:51;97886.75;;;11.10;91.17
59419;BME280;45224;50.904;6.038;2023-03-31T07:44:21;97885.06;;;11.09;90.76
59419;BME280;45224;50.904;6.038;2023-03-31T07:45:52;97882.31;;;11.14;90.25
59419;BME280;45224;50.904;6.038;2023-03-31T07:47:23;97869.22;;;11.19;89.89
59419;BME280;45224;50.904;6.038;2023-03-31T07:48:55;97882.56;;;11.33;89.69
59419;BME280;45224;50.904;6.038;2023-03-31T07:50:26;97880.88;;;11.32;90.11
59419;BME280;45224;50.904;6.038;2023-03-31T07:51:58;97870.44;;;11.33;89.28
59419;BME280;45224;50.904;6.038;2023-03-31T07:53:29;97895.97;;;11.44;88.45
59419;BME280;45224;50.904;6.038;2023-03-31T07:55:00;97863.13;;;11.46;88.09
59419;BME280;45224;50.904;6.038;2023-03-31T07:56:30;97880.09;;;11.55;88.11
59419;BME280;45224;50.904;6.038;2023-03-31T07:58:01;97875.06;;;11.50;86.78
59419;BME280;45224;50.904;6.038;2023-03-31T07:59:31;97864.59;;;11.54;86.48
59419;BME280;45224;50.904;6.038;2023-03-31T08:01:02;97876.22;;;11.67;85.32
59419;BME280;45224;50.904;6.038;2023-03-31T08:02:33;97874.31;;;11.72;84.49
59419;BME280;45224;50.904;6.038;2023-03-31T08:04:03;97866.72;;;11.93;83.97
59419;BME280;45224;50.904;6.038;2023-03-31T08:05:34;97859.84;;;12.15;83.71
59419;BME280;45224;50.904;6.038;2023-03-31T08:07:05;97859.47;;;12.48;82.12
59419;BME280;45224;50.904;6.038;2023-03-31T08:08:35;97863.16;;;12.65;80.22
59419;BME280;45224;50.904;6.038;2023-03-31T08:10:15;97853.94;;;12.79;78.79
59419;BME280;45224;50.904;6.038;2023-03-31T08:11:46;97849.69;;;12.99;78.37
59419;BME280;45224;50.904;6.038;2023-03-31T08:13:16;97863.41;;;13.23;78.03
59419;BME280;45224;50.904;6.038;2023-03-31T08:14:47;97852.69;;;13.32;77.06
59419;BME280;45224;50.904;6.038;2023-03-31T08:16:18;97852.31;;;13.40;77.38
59419;BME280;45224;50.904;6.038;2023-03-31T08:17:48;97855.47;;;13.48;77.33
59419;BME280;45224;50.904;6.038;2023-03-31T08:19:19;97861.13;;;13.15;75.46
59419;BME280;45224;50.904;6.038;2023-03-31T08:20:49;97852.56;;;13.36;76.15
59419;BME280;45224;50.904;6.038;2023-03-31T08:22:20;97856.97;;;13.32;75.43
59419;BME280;45224;50.904;6.038;2023-03-31T08:23:53;97852.88;;;13.48;75.15
59419;BME280;45224;50.904;6.038;2023-03-31T08:25:24;97858.06;;;13.48;74.38
59419;BME280;45224;50.904;6.038;2023-03-31T08:26:55;97857.19;;;13.48;73.82
59419;BME280;45224;50.904;6.038;2023-03-31T08:28:25;97855.50;;;13.26;74.78
59419;BME280;45224;50.904;6.038;2023-03-31T08:29:56;97869.78;;;13.37;74.61
59419;BME280;45224;50.904;6.038;2023-03-31T08:31:26;97848.50;;;13.49;74.71
59419;BME280;45224;50.904;6.038;2023-03-31T08:32:58;97853.25;;;13.60;74.27
59419;BME280;45224;50.904;6.038;2023-03-31T08:34:28;97855.47;;;13.88;73.86
59419;BME280;45224;50.904;6.038;2023-03-31T08:36:03;97856.34;;;14.07;73.34
59419;BME280;45224;50.904;6.038;2023-03-31T08:37:36;97844.38;;;14.22;73.31
59419;BME280;45224;50.904;6.038;2023-03-31T08:39:07;97846.66;;;14.30;72.36
59419;BME280;45224;50.904;6.038;2023-03-31T08:40:42;97848.19;;;14.53;72.45
59419;BME280;45224;50.904;6.038;2023-03-31T08:42:15;97855.34;;;14.67;69.82
59419;BME280;45224;50.904;6.038;2023-03-31T08:43:48;97844.53;;;14.76;70.14
59419;BME280;45224;50.904;6.038;2023-03-31T08:45:34;97844.88;;;14.50;68.99
59419;BME280;45224;50.904;6.038;2023-03-31T08:47:15;97847.19;;;14.56;68.13
59419;BME280;45224;50.904;6.038;2023-03-31T08:48:50;97847.47;;;14.50;68.08
59419;BME280;45224;50.904;6.038;2023-03-31T08:50:26;97858.16;;;14.43;68.20
59419;BME280;45224;50.904;6.038;2023-03-31T08:52:01;97826.34;;;14.19;67.21
59419;BME280;45224;50.904;6.038;2023-03-31T08:53:42;97846.38;;;14.17;67.79
59419;BME280;45224;50.904;6.038;2023-03-31T08:55:23;97839.19;;;13.84;68.20
59419;BME280;45224;50.904;6.038;2023-03-31T08:56:55;97829.63;;;13.85;68.96